sensor_id;sensor_type;location;lat;lon;timestamp;temperature;humidity
3268;DHT22;1646;52.450;13.326;2023-11-21T00:02:06;10.40;99.90
3268;DHT22;1646;52.450;13.326;2023-11-21T00:07:04;10.40;99.90
3268;DHT22;1646;52.450;13.326;2023-11-21T00:12:04;10.40;99.90
3268;DHT22;1646;52.450;13.326;2023-11-21T00:17:04;10.30;99.90
3268;DHT22;1646;52.450;13.326;2023-11-21T00:22:03;10.30;99.90
3268;DHT22;1646;52.450;13.326;2023-11-21T00:27:03;10.20;99.90
3268;DHT22;1646;52.450;13.326;2023-11-21T00:32:05;10.10;99.90
3268;DHT22;1646;52.450;13.326;2023-11-21T00:37:03;9.90;99.90
3268;DHT22;1646;52.450;13.326;2023-11-21T00:42:02;9.80;99.90
3268;DHT22;1646;52.450;13.326;2023-11-21T00:47:01;9.80;99.90
3268;DHT22;1646;52.450;13.326;2023-11-21T00:52:01;9.70;99.90
3268;DHT22;1646;52.450;13.326;2023-11-21T00:57:01;9.70;99.90
3268;DHT22;1646;52.450;13.326;2023-11-21T01:02:00;9.60;99.90
3268;DHT22;1646;52.450;13.326;2023-11-21T01:07:00;9.60;99.90
3268;DHT22;1646;52.450;13.326;2023-11-21T01:11:59;9.50;99.90
3268;DHT22;1646;52.450;13.326;2023-11-21T01:16:57;9.50;99.90
3268;DHT22;1646;52.450;13.326;2023-11-21T01:21:56;9.40;99.90
3268;DHT22;1646;52.450;13.326;2023-11-21T01:26:56;9.30;99.90
3268;DHT22;1646;52.450;13.326;2023-11-21T01:31:54;9.10;99.90
3268;DHT22;1646;52.450;13.326;2023-11-21T01:36:54;9.00;99.90
3268;DHT22;1646;52.450;13.326;2023-11-21T01:41:53;9.00;99.90
3268;DHT22;1646;52.450;13.326;2023-11-21T01:46:52;8.90;99.90
3268;DHT22;1646;52.450;13.326;2023-11-21T01:51:51;8.80;99.90
3268;DHT22;1646;52.450;13.326;2023-11-21T01:56:51;8.80;99.90
3268;DHT22;1646;52.450;13.326;2023-11-21T02:01:50;8.80;99.90
3268;DHT22;1646;52.450;13.326;2023-11-21T02:06:49;8.70;99.90
3268;DHT22;1646;52.450;13.326;2023-11-21T02:11:50;8.70;99.90
3268;DHT22;1646;52.450;13.326;2023-11-21T02:16:51;8.70;99.90
3268;DHT22;1646;52.450;13.326;2023-11-21T02:21:52;8.60;99.90
3268;DHT22;1646;52.450;13.326;2023-11-21T02:26:53;8.50;99.90
3268;DHT22;1646;52.450;13.326;2023-11-21T02:31:52;8.50;99.90
3268;DHT22;1646;52.450;13.326;2023-11-21T02:36:51;8.40;99.90
3268;DHT22;1646;52.450;13.326;2023-11-21T02:41:52;8.30;99.90
3268;DHT22;1646;52.450;13.326;2023-11-21T02:46:50;8.40;99.90
3268;DHT22;1646;52.450;13.326;2023-11-21T02:51:49;8.50;99.90
3268;DHT22;1646;52.450;13.326;2023-11-21T02:56:47;8.50;99.90
3268;DHT22;1646;52.450;13.326;2023-11-21T03:01:48;8.40;99.90
3268;DHT22;1646;52.450;13.326;2023-11-21T03:06:46;8.30;99.90
3268;DHT22;1646;52.450;13.326;2023-11-21T03:11:45;8.30;99.90
3268;DHT22;1646;52.450;13.326;2023-11-21T03:16:43;8.30;99.90
3268;DHT22;1646;52.450;13.326;2023-11-21T03:21:43;8.20;99.90
3268;DHT22;1646;52.450;13.326;2023-11-21T03:26:42;8.20;99.90
3268;DHT22;1646;52.450;13.326;2023-11-21T03:31:42;8.20;99.90
3268;DHT22;1646;52.450;13.326;2023-11-21T03:36:40;8.20;99.90
3268;DHT22;1646;52.450;13.326;2023-11-21T03:41:40;8.20;99.90
3268;DHT22;1646;52.450;13.326;2023-11-21T03:46:38;8.30;99.90
3268;DHT22;1646;52.450;13.326;2023-11-21T03:51:37;8.20;99.90
3268;DHT22;1646;52.450;13.326;2023-11-21T03:56:35;8.10;99.90
3268;DHT22;1646;52.450;13.326;2023-11-21T04:01:34;8.10;99.90
3268;DHT22;1646;52.450;13.326;2023-11-21T04:06:33;8.00;99.90
3268;DHT22;1646;52.450;13.326;2023-11-21T04:11:32;8.00;99.90
3268;DHT22;1646;52.450;13.326;2023-11-21T04:16:31;7.90;99.90
3268;DHT22;1646;52.450;13.326;2023-11-21T04:21:32;8.10;99.90
3268;DHT22;1646;52.450;13.326;2023-11-21T04:26:31;7.80;99.90
3268;DHT22;1646;52.450;13.326;2023-11-21T04:31:29;7.80;99.90
3268;DHT22;1646;52.450;13.326;2023-11-21T04:36:28;7.70;99.90
3268;DHT22;1646;52.450;13.326;2023-11-21T04:41:29;7.70;99.90
3268;DHT22;1646;52.450;13.326;2023-11-21T04:46:28;7.70;99.90
3268;DHT22;1646;52.450;13.326;2023-11-21T04:51:27;7.70;99.90
3268;DHT22;1646;52.450;13.326;2023-11-21T04:56:25;7.70;99.90
3268;DHT22;1646;52.450;13.326;2023-11-21T05:01:25;7.70;99.90
3268;DHT22;1646;52.450;13.326;2023-11-21T05:06:23;7.90;99.90
3268;DHT22;1646;52.450;13.326;2023-11-21T05:11:25;7.80;99.90
3268;DHT22;1646;52.450;13.326;2023-11-21T05:16:26;7.80;99.90
3268;DHT22;1646;52.450;13.326;2023-11-21T05:21:26;7.80;99.90
3268;DHT22;1646;52.450;13.326;2023-11-21T05:26:24;7.70;99.90
3268;DHT22;1646;52.450;13.326;2023-11-21T05:31:22;7.70;99.90
3268;DHT22;1646;52.450;13.326;2023-11-21T05:36:22;7.60;99.90
3268;DHT22;1646;52.450;13.326;2023-11-21T05:41:21;7.60;99.90
3268;DHT22;1646;52.450;13.326;2023-11-21T05:46:20;7.60;99.90
3268;DHT22;1646;52.450;13.326;2023-11-21T05:51:18;7.50;99.90
3268;DHT22;1646;52.450;13.326;2023-11-21T05:56:18;7.50;99.90
3268;DHT22;1646;52.450;13.326;2023-11-21T06:01:16;7.40;99.90
3268;DHT22;1646;52.450;13.326;2023-11-21T06:06:15;7.40;99.90
3268;DHT22;1646;52.450;13.326;2023-11-21T06:11:13;7.30;99.90
3268;DHT22;1646;52.450;13.326;2023-11-21T06:16:13;7.30;99.90
3268;DHT22;1646;52.450;13.326;2023-11-21T06:21:13;7.20;99.90
3268;DHT22;1646;52.450;13.326;2023-11-21T06:26:13;7.20;99.90
3268;DHT22;1646;52.450;13.326;2023-11-21T06:31:13;7.20;99.90
3268;DHT22;1646;52.450;13.326;2023-11-21T06:36:11;7.20;99.90
3268;DHT22;1646;52.450;13.326;2023-11-21T06:41:09;7.30;99.90
3268;DHT22;1646;52.450;13.326;2023-11-21T06:46:07;7.30;99.90
3268;DHT22;1646;52.450;13.326;2023-11-21T06:51:07;7.30;99.90
3268;DHT22;1646;52.450;13.326;2023-11-21T06:56:15;7.30;99.90
3268;DHT22;1646;52.450;13.326;2023-11-21T07:01:14;7.30;99.90
3268;DHT22;1646;52.450;13.326;2023-11-21T07:06:13;7.30;99.90
3268;DHT22;1646;52.450;13.326;2023-11-21T07:11:14;7.30;99.90
3268;DHT22;1646;52.450;13.326;2023-11-21T07:16:13;7.30;99.90
3268;DHT22;1646;52.450;13.326;2023-11-21T07:21:13;7.20;99.90
3268;DHT22;1646;52.450;13.326;2023-11-21T07:26:12;7.20;99.90
3268;DHT22;1646;52.450;13.326;2023-11-21T07:31:11;7.10;99.90
3268;DHT22;1646;52.450;13.326;2023-11-21T07:36:09;7.10;99.90
3268;DHT22;1646;52.450;13.326;2023-11-21T07:41:09;7.10;99.90
3268;DHT22;1646;52.450;13.326;2023-11-21T07:46:24;7.10;99.90
3268;DHT22;1646;52.450;13.326;2023-11-21T07:51:23;7.10;99.90
3268;DHT22;1646;52.450;13.326;2023-11-21T07:56:23;7.20;99.90
3268;DHT22;1646;52.450;13.326;2023-11-21T08:01:21;7.20;99.90
3268;DHT22;1646;52.450;13.326;2023-11-21T08:06:19;7.20;99.90
3268;DHT22;1646;52.450;13.326;2023-11-21T08:11:18;7.20;99.90
3268;DHT22;1646;52.450;13.326;2023-11-21T08:16:20;7.20;99.90
3268;DHT22;1646;52.450;13.326;2023-11-21T08:21:19;7.20;99.90
3268;DHT22;1646;52.450;13.326;2023-11-21T08:26:17;7.10;99.90
3268;DHT22;1646;52.450;13.326;2023-11-21T08:31:15;7.10;99.90
3268;DHT22;1646;52.450;13.326;2023-11-21T08:36:15;7.10;99.90
3268;DHT22;1646;52.450;13.326;2023-11-21T08:41:13;7.30;99.90
3268;DHT22;1646;52.450;13.326;2023-11-21T08:46:12;6.90;99.90
3268;DHT22;1646;52.450;13.326;2023-11-21T08:51:11;6.90;99.90
3268;DHT22;1646;52.450;13.326;2023-11-21T08:56:14;7.00;99.90
3268;DHT22;1646;52.450;13.326;2023-11-21T09:01:12;7.00;99.90
3268;DHT22;1646;52.450;13.326;2023-11-21T09:06:12;7.00;99.90
3268;DHT22;1646;52.450;13.326;2023-11-21T09:11:12;7.10;99.90
3268;DHT22;1646;52.450;13.326;2023-11-21T09:16:10;7.10;99.90
3268;DHT22;1646;52.450;13.326;2023-11-21T09:21:09;7.20;99.90
3268;DHT22;1646;52.450;13.326;2023-11-21T09:26:07;7.10;99.90
3268;DHT22;1646;52.450;13.326;2023-11-21T09:31:07;7.10;99.90
3268;DHT22;1646;52.450;13.326;2023-11-21T09:36:11;7.10;99.90
3268;DHT22;1646;52.450;13.326;2023-11-21T09:41:15;7.10;99.90
3268;DHT22;1646;52.450;13.326;2023-11-21T09:46:18;7.10;99.90
3268;DHT22;1646;52.450;13.326;2023-11-21T09:51:20;7.10;99.90
3268;DHT22;1646;52.450;13.326;2023-11-21T09:56:19;7.20;99.90
3268;DHT22;1646;52.450;13.326;2023-11-21T10:01:23;7.20;99.90
3268;DHT22;1646;52.450;13.326;2023-11-21T10:06:23;7.20;99.90
3268;DHT22;1646;52.450;13.326;2023-11-21T10:11:24;7.10;99.90
3268;DHT22;1646;52.450;13.326;2023-11-21T10:16:26;7.10;99.90
3268;DHT22;1646;52.450;13.326;2023-11-21T10:21:24;7.00;99.90
3268;DHT22;1646;52.450;13.326;2023-11-21T10:26:23;7.00;99.90
3268;DHT22;1646;52.450;13.326;2023-11-21T10:31:29;7.00;99.90
3268;DHT22;1646;52.450;13.326;2023-11-21T10:36:28;7.00;99.90
3268;DHT22;1646;52.450;13.326;2023-11-21T10:41:26;6.90;99.90
3268;DHT22;1646;52.450;13.326;2023-11-21T10:46:25;7.00;99.90
3268;DHT22;1646;52.450;13.326;2023-11-21T10:51:25;7.20;99.90
3268;DHT22;1646;52.450;13.326;2023-11-21T10:56:24;7.20;99.90
3268;DHT22;1646;52.450;13.326;2023-11-21T11:01:25;7.10;99.90
3268;DHT22;1646;52.450;13.326;2023-11-21T11:06:28;7.00;99.90
3268;DHT22;1646;52.450;13.326;2023-11-21T11:11:26;6.90;99.90
3268;DHT22;1646;52.450;13.326;2023-11-21T11:16:25;6.90;99.90
3268;DHT22;1646;52.450;13.326;2023-11-21T11:21:38;7.00;99.90
3268;DHT22;1646;52.450;13.326;2023-11-21T11:26:46;6.90;99.90
3268;DHT22;1646;52.450;13.326;2023-11-21T11:31:59;6.90;99.90
3268;DHT22;1646;52.450;13.326;2023-11-21T11:37:05;6.80;99.90
3268;DHT22;1646;52.450;13.326;2023-11-21T11:42:07;6.70;99.90
3268;DHT22;1646;52.450;13.326;2023-11-21T11:47:13;6.50;99.90
3268;DHT22;1646;52.450;13.326;2023-11-21T11:52:39;6.50;99.90
3268;DHT22;1646;52.450;13.326;2023-11-21T11:57:38;6.40;99.90
3268;DHT22;1646;52.450;13.326;2023-11-21T12:02:37;6.40;99.90
3268;DHT22;1646;52.450;13.326;2023-11-21T12:07:44;6.40;99.90
3268;DHT22;1646;52.450;13.326;2023-11-21T12:12:43;6.40;99.90
3268;DHT22;1646;52.450;13.326;2023-11-21T12:17:43;6.40;99.90
3268;DHT22;1646;52.450;13.326;2023-11-21T12:22:44;6.50;99.90
3268;DHT22;1646;52.450;13.326;2023-11-21T12:27:46;6.50;99.90
3268;DHT22;1646;52.450;13.326;2023-11-21T12:32:49;6.50;99.90
3268;DHT22;1646;52.450;13.326;2023-11-21T12:37:49;6.50;99.90
3268;DHT22;1646;52.450;13.326;2023-11-21T12:42:51;6.40;99.90
3268;DHT22;1646;52.450;13.326;2023-11-21T12:47:51;6.30;99.90
3268;DHT22;1646;52.450;13.326;2023-11-21T12:52:51;6.30;99.90
3268;DHT22;1646;52.450;13.326;2023-11-21T12:57:52;6.30;99.90
3268;DHT22;1646;52.450;13.326;2023-11-21T13:02:51;6.30;99.90
3268;DHT22;1646;52.450;13.326;2023-11-21T13:07:53;6.40;99.90
3268;DHT22;1646;52.450;13.326;2023-11-21T13:12:53;6.40;99.90
3268;DHT22;1646;52.450;13.326;2023-11-21T13:17:52;6.50;99.90
3268;DHT22;1646;52.450;13.326;2023-11-21T13:22:53;6.60;99.90
3268;DHT22;1646;52.450;13.326;2023-11-21T13:27:54;6.70;99.90
3268;DHT22;1646;52.450;13.326;2023-11-21T13:32:53;6.70;99.90
3268;DHT22;1646;52.450;13.326;2023-11-21T13:37:55;6.60;99.90
3268;DHT22;1646;52.450;13.326;2023-11-21T13:42:56;6.40;99.90
3268;DHT22;1646;52.450;13.326;2023-11-21T13:47:56;6.20;99.90
3268;DHT22;1646;52.450;13.326;2023-11-21T13:52:57;6.00;99.90
3268;DHT22;1646;52.450;13.326;2023-11-21T13:58:01;6.00;99.90
3268;DHT22;1646;52.450;13.326;2023-11-21T14:02:59;6.00;99.90
3268;DHT22;1646;52.450;13.326;2023-11-21T14:08:00;5.90;99.90
3268;DHT22;1646;52.450;13.326;2023-11-21T14:13:01;5.90;99.90
3268;DHT22;1646;52.450;13.326;2023-11-21T14:17:59;6.00;99.90
3268;DHT22;1646;52.450;13.326;2023-11-21T14:23:00;5.90;99.90
3268;DHT22;1646;52.450;13.326;2023-11-21T14:27:59;5.70;99.90
3268;DHT22;1646;52.450;13.326;2023-11-21T14:32:57;5.50;99.90
3268;DHT22;1646;52.450;13.326;2023-11-21T14:37:56;5.40;99.90
3268;DHT22;1646;52.450;13.326;2023-11-21T14:42:57;5.30;99.90
3268;DHT22;1646;52.450;13.326;2023-11-21T14:47:55;5.30;99.90
3268;DHT22;1646;52.450;13.326;2023-11-21T14:53:03;5.30;99.90
3268;DHT22;1646;52.450;13.326;2023-11-21T14:58:04;5.20;99.90
3268;DHT22;1646;52.450;13.326;2023-11-21T15:03:03;5.30;99.90
3268;DHT22;1646;52.450;13.326;2023-11-21T15:08:03;5.30;99.90
3268;DHT22;1646;52.450;13.326;2023-11-21T15:13:17;5.20;99.90
3268;DHT22;1646;52.450;13.326;2023-11-21T15:18:15;5.30;99.90
3268;DHT22;1646;52.450;13.326;2023-11-21T15:23:14;5.20;99.90
3268;DHT22;1646;52.450;13.326;2023-11-21T15:28:15;5.20;99.90
3268;DHT22;1646;52.450;13.326;2023-11-21T15:33:15;5.10;99.90
3268;DHT22;1646;52.450;13.326;2023-11-21T15:38:14;5.10;99.90
3268;DHT22;1646;52.450;13.326;2023-11-21T15:43:12;4.90;99.90
3268;DHT22;1646;52.450;13.326;2023-11-21T15:48:11;4.90;99.90
3268;DHT22;1646;52.450;13.326;2023-11-21T15:53:11;4.80;99.90
3268;DHT22;1646;52.450;13.326;2023-11-21T15:58:10;4.80;99.90
3268;DHT22;1646;52.450;13.326;2023-11-21T16:03:08;4.90;99.90
3268;DHT22;1646;52.450;13.326;2023-11-21T16:08:10;4.90;99.90
3268;DHT22;1646;52.450;13.326;2023-11-21T16:13:09;4.90;99.90
3268;DHT22;1646;52.450;13.326;2023-11-21T16:18:07;4.90;99.90
3268;DHT22;1646;52.450;13.326;2023-11-21T16:23:05;4.90;99.90
3268;DHT22;1646;52.450;13.326;2023-11-21T16:28:06;4.90;99.90
3268;DHT22;1646;52.450;13.326;2023-11-21T16:33:05;4.90;99.90
3268;DHT22;1646;52.450;13.326;2023-11-21T16:38:03;4.90;99.90
3268;DHT22;1646;52.450;13.326;2023-11-21T16:43:01;4.80;99.90
3268;DHT22;1646;52.450;13.326;2023-11-21T16:48:01;4.80;99.90
3268;DHT22;1646;52.450;13.326;2023-11-21T16:53:00;4.80;99.90
3268;DHT22;1646;52.450;13.326;2023-11-21T16:57:59;4.70;99.90
3268;DHT22;1646;52.450;13.326;2023-11-21T17:02:57;4.60;99.90
3268;DHT22;1646;52.450;13.326;2023-11-21T17:07:57;4.50;99.90
3268;DHT22;1646;52.450;13.326;2023-11-21T17:12:55;4.50;99.90
3268;DHT22;1646;52.450;13.326;2023-11-21T17:17:54;4.50;99.90
3268;DHT22;1646;52.450;13.326;2023-11-21T17:22:56;4.50;99.90
3268;DHT22;1646;52.450;13.326;2023-11-21T17:27:55;4.50;99.90
3268;DHT22;1646;52.450;13.326;2023-11-21T17:32:54;4.60;99.90
3268;DHT22;1646;52.450;13.326;2023-11-21T17:37:54;4.60;99.90
3268;DHT22;1646;52.450;13.326;2023-11-21T17:42:53;4.70;99.90
3268;DHT22;1646;52.450;13.326;2023-11-21T17:47:52;4.80;99.90
3268;DHT22;1646;52.450;13.326;2023-11-21T17:52:50;4.90;99.90
3268;DHT22;1646;52.450;13.326;2023-11-21T17:57:48;4.80;99.90
3268;DHT22;1646;52.450;13.326;2023-11-21T18:02:49;4.90;99.90
3268;DHT22;1646;52.450;13.326;2023-11-21T18:07:47;4.70;99.90
3268;DHT22;1646;52.450;13.326;2023-11-21T18:12:45;4.60;99.90
3268;DHT22;1646;52.450;13.326;2023-11-21T18:17:45;4.70;99.90
3268;DHT22;1646;52.450;13.326;2023-11-21T18:22:45;4.60;99.90
3268;DHT22;1646;52.450;13.326;2023-11-21T18:27:43;4.60;99.90
3268;DHT22;1646;52.450;13.326;2023-11-21T18:32:42;4.50;99.90
3268;DHT22;1646;52.450;13.326;2023-11-21T18:37:40;4.40;99.90
3268;DHT22;1646;52.450;13.326;2023-11-21T18:42:41;4.50;99.90
3268;DHT22;1646;52.450;13.326;2023-11-21T18:47:42;4.50;99.90
3268;DHT22;1646;52.450;13.326;2023-11-21T18:52:40;4.60;99.90
3268;DHT22;1646;52.450;13.326;2023-11-21T18:57:38;4.50;99.90
3268;DHT22;1646;52.450;13.326;2023-11-21T19:02:38;4.40;99.90
3268;DHT22;1646;52.450;13.326;2023-11-21T19:07:37;4.40;99.90
3268;DHT22;1646;52.450;13.326;2023-11-21T19:12:36;4.30;99.90
3268;DHT22;1646;52.450;13.326;2023-11-21T19:17:37;4.50;99.90
3268;DHT22;1646;52.450;13.326;2023-11-21T19:22:36;4.30;99.90
3268;DHT22;1646;52.450;13.326;2023-11-21T19:27:34;4.30;99.90
3268;DHT22;1646;52.450;13.326;2023-11-21T19:32:33;4.20;99.90
3268;DHT22;1646;52.450;13.326;2023-11-21T19:37:33;4.20;99.90
3268;DHT22;1646;52.450;13.326;2023-11-21T19:42:32;4.20;99.90
3268;DHT22;1646;52.450;13.326;2023-11-21T19:47:31;4.10;99.90
3268;DHT22;1646;52.450;13.326;2023-11-21T19:52:37;4.20;99.90
3268;DHT22;1646;52.450;13.326;2023-11-21T19:57:35;4.20;99.90
3268;DHT22;1646;52.450;13.326;2023-11-21T20:02:34;4.20;99.90
3268;DHT22;1646;52.450;13.326;2023-11-21T20:07:33;4.10;99.90
3268;DHT22;1646;52.450;13.326;2023-11-21T20:12:32;4.20;99.90
3268;DHT22;1646;52.450;13.326;2023-11-21T20:17:31;4.20;99.90
3268;DHT22;1646;52.450;13.326;2023-11-21T20:22:29;4.20;99.90
3268;DHT22;1646;52.450;13.326;2023-11-21T20:27:27;4.30;99.90
3268;DHT22;1646;52.450;13.326;2023-11-21T20:32:27;4.20;99.90
3268;DHT22;1646;52.450;13.326;2023-11-21T20:37:26;4.20;99.90
3268;DHT22;1646;52.450;13.326;2023-11-21T20:42:24;4.10;99.90
3268;DHT22;1646;52.450;13.326;2023-11-21T20:47:22;4.10;99.90
3268;DHT22;1646;52.450;13.326;2023-11-21T20:52:23;4.30;99.90
3268;DHT22;1646;52.450;13.326;2023-11-21T20:57:21;4.10;99.90
3268;DHT22;1646;52.450;13.326;2023-11-21T21:02:20;4.10;99.90
3268;DHT22;1646;52.450;13.326;2023-11-21T21:07:19;4.10;99.90
3268;DHT22;1646;52.450;13.326;2023-11-21T21:12:18;4.00;99.90
3268;DHT22;1646;52.450;13.326;2023-11-21T21:17:17;4.00;99.90
3268;DHT22;1646;52.450;13.326;2023-11-21T21:22:15;3.90;99.90
3268;DHT22;1646;52.450;13.326;2023-11-21T21:27:13;3.90;99.90
3268;DHT22;1646;52.450;13.326;2023-11-21T21:32:13;3.90;99.90
3268;DHT22;1646;52.450;13.326;2023-11-21T21:37:11;3.90;99.90
3268;DHT22;1646;52.450;13.326;2023-11-21T21:42:10;3.80;99.90
3268;DHT22;1646;52.450;13.326;2023-11-21T21:47:08;3.80;99.90
3268;DHT22;1646;52.450;13.326;2023-11-21T21:52:08;3.80;99.90
3268;DHT22;1646;52.450;13.326;2023-11-21T21:57:07;3.80;99.90
3268;DHT22;1646;52.450;13.326;2023-11-21T22:02:05;3.80;99.90
3268;DHT22;1646;52.450;13.326;2023-11-21T22:07:04;3.80;99.90
3268;DHT22;1646;52.450;13.326;2023-11-21T22:12:05;3.70;99.90
3268;DHT22;1646;52.450;13.326;2023-11-21T22:17:03;3.70;99.90
3268;DHT22;1646;52.450;13.326;2023-11-21T22:22:02;3.90;99.90
3268;DHT22;1646;52.450;13.326;2023-11-21T22:27:00;3.70;99.90
3268;DHT22;1646;52.450;13.326;2023-11-21T22:32:00;3.70;99.90
3268;DHT22;1646;52.450;13.326;2023-11-21T22:36:59;3.60;99.90
3268;DHT22;1646;52.450;13.326;2023-11-21T22:41:58;3.60;99.90
3268;DHT22;1646;52.450;13.326;2023-11-21T22:46:56;3.60;99.90
3268;DHT22;1646;52.450;13.326;2023-11-21T22:51:59;3.60;99.90
3268;DHT22;1646;52.450;13.326;2023-11-21T22:56:57;3.60;99.90
3268;DHT22;1646;52.450;13.326;2023-11-21T23:01:55;3.60;99.90
3268;DHT22;1646;52.450;13.326;2023-11-21T23:06:54;3.60;99.90
3268;DHT22;1646;52.450;13.326;2023-11-21T23:11:53;3.50;99.90
3268;DHT22;1646;52.450;13.326;2023-11-21T23:16:52;3.40;99.90
3268;DHT22;1646;52.450;13.326;2023-11-21T23:21:50;3.40;99.90
3268;DHT22;1646;52.450;13.326;2023-11-21T23:26:49;3.40;99.90
3268;DHT22;1646;52.450;13.326;2023-11-21T23:31:48;3.40;99.90
3268;DHT22;1646;52.450;13.326;2023-11-21T23:36:47;3.50;99.90
3268;DHT22;1646;52.450;13.326;2023-11-21T23:41:45;3.60;99.90
3268;DHT22;1646;52.450;13.326;2023-11-21T23:46:43;3.60;99.90
3268;DHT22;1646;52.450;13.326;2023-11-21T23:51:43;3.70;99.90
3268;DHT22;1646;52.450;13.326;2023-11-21T23:56:43;3.70;99.90
